Time;durP1;ratioP1;P1;durP2;ratioP2;P2;SDS_P1;SDS_P2;PMS_P1;PMS_P2;Temp;Humidity;BMP_temperature;BMP_pressure;BME280_temperature;BME280_humidity;BME280_pressure;Samples;Min_cycle;Max_cycle;Signal;HPM_P1;HPM_P2
2022/01/05 00:01:37;;;;;;;;;;;6.70;99.90;;;;;;4286977;33;32431;-78
2022/01/05 00:04:04;;;;;;;;;;;6.70;99.90;;;;;;4286851;33;39788;-78
2022/01/05 00:06:31;;;;;;;;;;;6.70;99.90;;;;;;4274787;33;23608;-78
2022/01/05 00:09:01;;;;;;;;;;;6.70;99.90;;;;;;4287210;33;40229;-77
2022/01/05 00:11:31;;;;;;;;;;;6.70;99.90;;;;;;4274359;33;24399;-78
2022/01/05 00:14:00;;;;;;;;;;;6.60;99.90;;;;;;4287500;33;39042;-78
2022/01/05 00:16:30;;;;;;;;;;;6.60;99.90;;;;;;4274120;33;39523;-78
2022/01/05 00:18:58;;;;;;;;;;;6.60;99.90;;;;;;4287146;33;37316;-78
2022/01/05 00:21:25;;;;;;;;;;;6.60;99.90;;;;;;4274126;33;43851;-79
2022/01/05 00:23:55;;;;;;;;;;;6.60;99.90;;;;;;4273926;33;34278;-78
2022/01/05 00:26:22;;;;;;;;;;;6.60;99.90;;;;;;4286943;33;32789;-78
2022/01/05 00:28:49;;;;;;;;;;;6.60;99.90;;;;;;4274281;33;38456;-78
2022/01/05 00:31:16;;;;;;;;;;;6.50;99.90;;;;;;4274313;33;34893;-78
2022/01/05 00:33:43;;;;;;;;;;;6.50;99.90;;;;;;4273743;33;41021;-78
2022/01/05 00:36:11;;;;;;;;;;;6.50;99.90;;;;;;4286595;33;39892;-79
2022/01/05 00:38:38;;;;;;;;;;;6.50;99.90;;;;;;4273717;33;44000;-78
2022/01/05 00:41:07;;;;;;;;;;;6.50;99.90;;;;;;4275327;33;20011;-78
2022/01/05 00:43:34;;;;;;;;;;;6.50;99.90;;;;;;4263247;33;20007;-78
2022/01/05 00:46:02;;;;;;;;;;;6.50;99.90;;;;;;4273894;33;30735;-78
2022/01/05 00:48:32;;;;;;;;;;;6.50;99.90;;;;;;4288022;33;20404;-78
2022/01/05 00:51:02;;;;;;;;;;;6.50;99.90;;;;;;4276685;33;20007;-78
2022/01/05 00:53:32;;;;;;;;;;;6.50;99.90;;;;;;4278014;33;20080;-78
2022/01/05 00:56:02;;;;;;;;;;;6.50;99.90;;;;;;4277641;33;20099;-78
2022/01/05 00:58:29;;;;;;;;;;;6.40;99.90;;;;;;4276803;33;33529;-78
2022/01/05 01:00:56;;;;;;;;;;;6.50;99.90;;;;;;4289869;33;38975;-78
2022/01/05 01:03:27;;;;;;;;;;;6.40;99.90;;;;;;4277223;33;20018;-79
2022/01/05 01:05:59;;;;;;;;;;;6.40;99.90;;;;;;4289002;33;44429;-78
2022/01/05 01:08:26;;;;;;;;;;;6.40;99.90;;;;;;4289610;33;26593;-78
2022/01/05 01:10:54;;;;;;;;;;;6.40;99.90;;;;;;4276791;33;30442;-78
2022/01/05 01:13:23;;;;;;;;;;;6.40;99.90;;;;;;4289576;33;41215;-78
2022/01/05 01:15:51;;;;;;;;;;;6.30;99.90;;;;;;4289004;33;40332;-79
2022/01/05 01:18:21;;;;;;;;;;;6.30;99.90;;;;;;4277133;33;43305;-78
2022/01/05 01:20:49;;;;;;;;;;;6.30;99.90;;;;;;4264390;33;43766;-78
2022/01/05 01:23:21;;;;;;;;;;;6.30;99.90;;;;;;4276563;33;36043;-78
2022/01/05 01:25:49;;;;;;;;;;;6.30;99.90;;;;;;4265193;33;22894;-78
2022/01/05 01:28:16;;;;;;;;;;;6.30;99.90;;;;;;4289004;33;37516;-78
2022/01/05 01:30:50;;;;;;;;;;;6.30;99.90;;;;;;4288817;33;39008;-78
2022/01/05 01:33:34;;;;;;;;;;;6.30;99.90;;;;;;4276200;33;36605;-79
2022/01/05 01:36:01;;;;;;;;;;;6.30;99.90;;;;;;4275902;33;39852;-78
2022/01/05 01:38:28;;;;;;;;;;;6.20;99.90;;;;;;4263989;33;43133;-78
2022/01/05 01:40:55;;;;;;;;;;;6.20;99.90;;;;;;4288754;33;37627;-79
2022/01/05 01:43:23;;;;;;;;;;;6.20;99.90;;;;;;4277007;33;20037;-79
2022/01/05 01:45:50;;;;;;;;;;;6.20;99.90;;;;;;4289993;33;20017;-78
2022/01/05 01:48:17;;;;;;;;;;;6.20;99.90;;;;;;4275706;33;43777;-79
2022/01/05 01:50:44;;;;;;;;;;;6.20;99.90;;;;;;4275684;33;40407;-78
2022/01/05 01:53:12;;;;;;;;;;;6.20;99.90;;;;;;4276527;33;30748;-79
2022/01/05 01:55:39;;;;;;;;;;;6.10;99.90;;;;;;4275653;33;33267;-79
2022/01/05 01:58:07;;;;;;;;;;;6.10;99.90;;;;;;4288884;33;27069;-78
2022/01/05 02:00:35;;;;;;;;;;;6.10;99.90;;;;;;4276237;33;31901;-79
2022/01/05 02:03:03;;;;;;;;;;;6.10;99.90;;;;;;4288731;33;20062;-79
2022/01/05 02:05:30;;;;;;;;;;;6.10;99.90;;;;;;4275524;33;47169;-79
2022/01/05 02:07:57;;;;;;;;;;;6.10;99.90;;;;;;4288469;33;35883;-78
2022/01/05 02:10:24;;;;;;;;;;;6.10;99.90;;;;;;4275964;33;35156;-79
2022/01/05 02:12:51;;;;;;;;;;;6.10;99.90;;;;;;4289159;33;40008;-79
2022/01/05 02:15:18;;;;;;;;;;;6.10;99.90;;;;;;4289636;33;20018;-78
2022/01/05 02:17:52;;;;;;;;;;;6.00;99.90;;;;;;4275828;33;40121;-78
2022/01/05 02:20:21;;;;;;;;;;;6.00;99.90;;;;;;4264710;33;20058;-79
2022/01/05 02:22:48;;;;;;;;;;;6.00;99.90;;;;;;4275299;33;20400;-78
2022/01/05 02:25:15;;;;;;;;;;;6.00;99.90;;;;;;4275861;33;20010;-78
2022/01/05 02:27:44;;;;;;;;;;;6.00;99.90;;;;;;4276299;33;20051;-79
2022/01/05 02:30:12;;;;;;;;;;;6.00;99.90;;;;;;4289560;33;20364;-78
2022/01/05 02:32:40;;;;;;;;;;;5.90;99.90;;;;;;4289513;33;20113;-79
2022/01/05 02:35:08;;;;;;;;;;;5.90;99.90;;;;;;4289268;33;20005;-78
2022/01/05 02:37:39;;;;;;;;;;;5.90;99.90;;;;;;4288875;33;20388;-78
2022/01/05 02:40:08;;;;;;;;;;;5.80;99.90;;;;;;4275560;33;20006;-78
2022/01/05 02:42:35;;;;;;;;;;;5.90;99.90;;;;;;4289068;33;20010;-78
2022/01/05 02:45:02;;;;;;;;;;;5.80;99.90;;;;;;4275967;33;20006;-78
2022/01/05 02:47:29;;;;;;;;;;;5.80;99.90;;;;;;4275425;33;20379;-78
2022/01/05 02:49:57;;;;;;;;;;;5.80;99.90;;;;;;4275868;33;20019;-78
2022/01/05 02:52:24;;;;;;;;;;;5.80;99.90;;;;;;4288704;33;20039;-79
2022/01/05 02:54:51;;;;;;;;;;;5.80;99.90;;;;;;4288655;33;20021;-78
2022/01/05 02:57:18;;;;;;;;;;;5.80;99.90;;;;;;4275742;33;20003;-78
2022/01/05 02:59:45;;;;;;;;;;;5.70;99.90;;;;;;4288749;33;20006;-79
2022/01/05 03:02:12;;;;;;;;;;;5.70;99.90;;;;;;4275912;33;20019;-79
2022/01/05 03:04:40;;;;;;;;;;;5.80;99.90;;;;;;4288709;33;20069;-79
2022/01/05 03:07:08;;;;;;;;;;;5.70;99.90;;;;;;4275351;33;20014;-79
2022/01/05 03:09:35;;;;;;;;;;;5.70;99.90;;;;;;4289032;33;20018;-79
2022/01/05 03:12:03;;;;;;;;;;;5.70;99.90;;;;;;4275760;33;20013;-78
2022/01/05 03:14:30;;;;;;;;;;;5.70;99.90;;;;;;4275767;33;20053;-78
2022/01/05 03:16:57;;;;;;;;;;;5.70;99.90;;;;;;4288641;33;20016;-78
2022/01/05 03:19:25;;;;;;;;;;;5.70;99.90;;;;;;4275744;33;20018;-78
2022/01/05 03:21:52;;;;;;;;;;;5.70;99.90;;;;;;4275374;33;20010;-78
2022/01/05 03:24:19;;;;;;;;;;;5.60;99.90;;;;;;4275703;33;20078;-78
2022/01/05 03:26:46;;;;;;;;;;;5.60;99.90;;;;;;4275001;33;20372;-79
2022/01/05 03:29:13;;;;;;;;;;;5.60;99.90;;;;;;4275284;33;20079;-78
2022/01/05 03:31:41;;;;;;;;;;;5.60;99.90;;;;;;4288709;33;20392;-79
2022/01/05 03:34:16;;;;;;;;;;;5.60;99.90;;;;;;4274824;33;20034;-79
2022/01/05 03:36:43;;;;;;;;;;;5.60;99.90;;;;;;4288677;33;20007;-78
2022/01/05 03:39:10;;;;;;;;;;;5.60;99.90;;;;;;4275272;33;20058;-79
2022/01/05 03:41:37;;;;;;;;;;;5.60;99.90;;;;;;4275069;33;20017;-78
2022/01/05 03:44:05;;;;;;;;;;;5.50;99.90;;;;;;4275582;33;20006;-78
2022/01/05 03:46:32;;;;;;;;;;;5.50;99.90;;;;;;4275245;33;20014;-78
2022/01/05 03:49:00;;;;;;;;;;;5.50;99.90;;;;;;4275291;33;20002;-79
2022/01/05 03:51:27;;;;;;;;;;;5.50;99.90;;;;;;4288788;33;20024;-79
2022/01/05 03:53:54;;;;;;;;;;;5.50;99.90;;;;;;4275407;33;20395;-78
2022/01/05 03:56:21;;;;;;;;;;;5.50;99.90;;;;;;4286173;33;40495;-78
2022/01/05 03:58:49;;;;;;;;;;;5.50;99.90;;;;;;4287479;33;36169;-78
2022/01/05 04:01:16;;;;;;;;;;;5.40;99.90;;;;;;4274242;33;42429;-79
2022/01/05 04:03:43;;;;;;;;;;;5.40;99.90;;;;;;4274609;33;38195;-78
2022/01/05 04:06:10;;;;;;;;;;;5.50;99.90;;;;;;4275286;33;20025;-78
2022/01/05 04:08:37;;;;;;;;;;;5.40;99.90;;;;;;4274668;33;30687;-78
2022/01/05 04:11:04;;;;;;;;;;;5.40;99.90;;;;;;4274350;33;40590;-78
2022/01/05 04:13:31;;;;;;;;;;;5.40;99.90;;;;;;4262557;33;43856;-78
2022/01/05 04:15:58;;;;;;;;;;;5.40;99.90;;;;;;4274208;33;30568;-79
2022/01/05 04:18:26;;;;;;;;;;;5.40;99.90;;;;;;4287169;33;43606;-78
2022/01/05 04:20:53;;;;;;;;;;;5.30;99.90;;;;;;4261846;33;45485;-78
2022/01/05 04:23:20;;;;;;;;;;;5.30;99.90;;;;;;4287158;33;42600;-78
2022/01/05 04:25:47;;;;;;;;;;;5.30;99.90;;;;;;4287990;33;42234;-78
2022/01/05 04:28:14;;;;;;;;;;;5.30;99.90;;;;;;4277397;33;35328;-79
2022/01/05 04:30:41;;;;;;;;;;;5.30;99.90;;;;;;4277552;33;31718;-78
2022/01/05 04:33:08;;;;;;;;;;;5.30;99.90;;;;;;4277028;33;43854;-78
2022/01/05 04:35:55;;;;;;;;;;;5.30;99.90;;;;;;4277113;33;37244;-78
2022/01/05 04:38:22;;;;;;;;;;;5.30;99.90;;;;;;4290497;33;28735;-78
2022/01/05 04:40:49;;;;;;;;;;;5.30;99.90;;;;;;4290006;33;40350;-78
2022/01/05 04:43:16;;;;;;;;;;;5.20;99.90;;;;;;4276759;33;40853;-79
2022/01/05 04:45:43;;;;;;;;;;;5.20;99.90;;;;;;4288842;33;32469;-78
2022/01/05 04:48:11;;;;;;;;;;;5.20;99.90;;;;;;4277561;33;20413;-78
2022/01/05 04:50:38;;;;;;;;;;;5.20;99.90;;;;;;4264897;33;44540;-78
2022/01/05 04:53:05;;;;;;;;;;;5.20;99.90;;;;;;4276821;33;42727;-78
2022/01/05 04:55:32;;;;;;;;;;;5.20;99.90;;;;;;4289254;33;43373;-79
2022/01/05 04:57:59;;;;;;;;;;;5.10;99.90;;;;;;4289914;33;37358;-78
2022/01/05 05:00:26;;;;;;;;;;;5.10;99.90;;;;;;4289207;33;44714;-79
2022/01/05 05:02:53;;;;;;;;;;;5.10;99.90;;;;;;4275975;33;45253;-78
2022/01/05 05:05:20;;;;;;;;;;;5.10;99.90;;;;;;4264694;33;45076;-78
2022/01/05 05:07:47;;;;;;;;;;;5.10;99.90;;;;;;4277672;33;20070;-78
2022/01/05 05:10:14;;;;;;;;;;;5.10;99.90;;;;;;4276080;33;44824;-78
2022/01/05 05:12:41;;;;;;;;;;;5.10;99.90;;;;;;4277399;33;20073;-78
2022/01/05 05:15:08;;;;;;;;;;;5.10;99.90;;;;;;4276577;33;43408;-78
2022/01/05 05:17:36;;;;;;;;;;;5.00;99.90;;;;;;4276206;33;44248;-78
2022/01/05 05:20:03;;;;;;;;;;;5.00;99.90;;;;;;4277252;33;20028;-78
2022/01/05 05:22:30;;;;;;;;;;;5.00;99.90;;;;;;4276045;33;35969;-78
2022/01/05 05:24:58;;;;;;;;;;;5.00;99.90;;;;;;4277213;33;22902;-78
2022/01/05 05:27:25;;;;;;;;;;;5.00;99.90;;;;;;4276263;33;38674;-78
2022/01/05 05:29:52;;;;;;;;;;;5.00;99.90;;;;;;4289516;33;40014;-78
2022/01/05 05:32:19;;;;;;;;;;;5.00;99.90;;;;;;4275991;33;38132;-79
2022/01/05 05:34:46;;;;;;;;;;;4.90;99.90;;;;;;4276297;33;35789;-78
2022/01/05 05:37:16;;;;;;;;;;;4.90;99.90;;;;;;4276046;33;42528;-79
2022/01/05 05:39:44;;;;;;;;;;;4.90;99.90;;;;;;4289486;33;31381;-79
2022/01/05 05:42:11;;;;;;;;;;;4.90;99.90;;;;;;4288764;33;39181;-78
2022/01/05 05:44:38;;;;;;;;;;;4.80;99.90;;;;;;4289243;33;41459;-78
2022/01/05 05:47:08;;;;;;;;;;;4.80;99.90;;;;;;4276438;33;35473;-78
2022/01/05 05:49:35;;;;;;;;;;;4.80;99.90;;;;;;4289111;33;24562;-79
2022/01/05 05:52:02;;;;;;;;;;;4.80;99.90;;;;;;4276356;33;20006;-79
2022/01/05 05:54:30;;;;;;;;;;;4.80;99.90;;;;;;4275909;33;33198;-78
2022/01/05 05:56:58;;;;;;;;;;;4.80;99.90;;;;;;4276024;33;38227;-78
2022/01/05 05:59:25;;;;;;;;;;;4.70;99.90;;;;;;4288389;33;45014;-78
2022/01/05 06:01:52;;;;;;;;;;;4.70;99.90;;;;;;4276090;33;30370;-78
2022/01/05 06:04:20;;;;;;;;;;;4.70;99.90;;;;;;4275453;33;42076;-79
2022/01/05 06:06:47;;;;;;;;;;;4.70;99.90;;;;;;4275629;33;33971;-79
2022/01/05 06:09:14;;;;;;;;;;;4.60;99.90;;;;;;4288999;33;33645;-79
2022/01/05 06:11:41;;;;;;;;;;;4.60;99.90;;;;;;4288532;33;33921;-79
2022/01/05 06:14:08;;;;;;;;;;;4.60;99.90;;;;;;4263517;33;44324;-78
2022/01/05 06:16:35;;;;;;;;;;;4.50;99.90;;;;;;4289728;33;20410;-79
2022/01/05 06:19:05;;;;;;;;;;;4.60;99.90;;;;;;4276044;33;27003;-78
2022/01/05 06:21:32;;;;;;;;;;;4.50;99.90;;;;;;4276050;33;20028;-78
2022/01/05 06:24:11;;;;;;;;;;;4.50;99.90;;;;;;4288828;33;20021;-78
2022/01/05 06:26:38;;;;;;;;;;;4.50;99.90;;;;;;4276034;33;20011;-78
2022/01/05 06:29:08;;;;;;;;;;;4.50;99.90;;;;;;4265090;33;20002;-78
2022/01/05 06:31:46;;;;;;;;;;;4.50;99.90;;;;;;4289519;33;20361;-79
2022/01/05 06:34:14;;;;;;;;;;;4.50;99.90;;;;;;4276952;33;20032;-79
2022/01/05 06:36:41;;;;;;;;;;;4.40;99.90;;;;;;4289743;33;20050;-79
2022/01/05 06:39:09;;;;;;;;;;;4.40;99.90;;;;;;4289667;33;20062;-79
2022/01/05 06:41:39;;;;;;;;;;;4.40;99.90;;;;;;4289146;33;20018;-79
2022/01/05 06:44:09;;;;;;;;;;;4.50;99.90;;;;;;4264606;33;20050;-79
2022/01/05 06:46:45;;;;;;;;;;;4.40;99.90;;;;;;4289662;33;20317;-79
2022/01/05 06:49:15;;;;;;;;;;;4.40;99.90;;;;;;4288994;33;20070;-79
2022/01/05 06:51:42;;;;;;;;;;;4.40;99.90;;;;;;4289313;33;20096;-79
2022/01/05 06:54:12;;;;;;;;;;;4.40;99.90;;;;;;4276480;33;20022;-79
2022/01/05 06:56:42;;;;;;;;;;;4.40;99.90;;;;;;4275586;33;20010;-79
2022/01/05 06:59:09;;;;;;;;;;;4.40;99.90;;;;;;4289320;33;20078;-78
2022/01/05 07:01:36;;;;;;;;;;;4.40;99.90;;;;;;4275775;33;20041;-79
2022/01/05 07:04:07;;;;;;;;;;;4.40;99.90;;;;;;4289158;33;20026;-79
2022/01/05 07:06:37;;;;;;;;;;;4.30;99.90;;;;;;4289184;33;20006;-79
2022/01/05 07:09:07;;;;;;;;;;;4.30;99.90;;;;;;4264433;33;20016;-79
2022/01/05 07:11:40;;;;;;;;;;;4.30;99.90;;;;;;4275998;33;20341;-79
2022/01/05 07:14:07;;;;;;;;;;;4.30;99.90;;;;;;4288556;33;20050;-79
2022/01/05 07:16:43;;;;;;;;;;;4.30;99.90;;;;;;4288589;33;20026;-79
2022/01/05 07:19:16;;;;;;;;;;;4.30;99.90;;;;;;4288958;33;20073;-79
2022/01/05 07:21:44;;;;;;;;;;;4.30;99.90;;;;;;4288994;33;20010;-79
2022/01/05 07:24:13;;;;;;;;;;;4.30;99.90;;;;;;4276215;33;20002;-78
2022/01/05 07:26:43;;;;;;;;;;;4.30;99.90;;;;;;4264063;33;20045;-79
2022/01/05 07:29:15;;;;;;;;;;;4.30;99.90;;;;;;4276265;33;20014;-79
2022/01/05 07:31:42;;;;;;;;;;;4.20;99.90;;;;;;4275593;33;20158;-79
2022/01/05 07:34:09;;;;;;;;;;;4.30;99.90;;;;;;4275355;33;20003;-79
2022/01/05 07:36:40;;;;;;;;;;;4.20;99.90;;;;;;4275839;33;20141;-79
2022/01/05 07:39:07;;;;;;;;;;;4.20;99.90;;;;;;4275609;33;20010;-79
2022/01/05 07:41:38;;;;;;;;;;;4.20;99.90;;;;;;4275748;33;20014;-79
2022/01/05 07:44:09;;;;;;;;;;;4.20;99.90;;;;;;4275552;33;20453;-79
2022/01/05 07:46:39;;;;;;;;;;;4.20;99.90;;;;;;4275809;33;20060;-79
2022/01/05 07:49:07;;;;;;;;;;;4.20;99.90;;;;;;4275526;33;20008;-79
2022/01/05 07:51:36;;;;;;;;;;;4.20;99.90;;;;;;4263417;33;20003;-79
2022/01/05 07:54:04;;;;;;;;;;;4.20;99.90;;;;;;4288187;33;20020;-79
2022/01/05 07:56:33;;;;;;;;;;;4.10;99.90;;;;;;4263141;33;20006;-79
2022/01/05 07:59:00;;;;;;;;;;;4.20;99.90;;;;;;4263427;33;20036;-79
2022/01/05 08:01:32;;;;;;;;;;;4.10;99.90;;;;;;4275384;33;20136;-79
2022/01/05 08:04:00;;;;;;;;;;;4.10;99.90;;;;;;4275510;33;20012;-79
2022/01/05 08:06:35;;;;;;;;;;;4.10;99.90;;;;;;4275752;33;20014;-78
2022/01/05 08:09:04;;;;;;;;;;;4.20;99.90;;;;;;4288530;33;20070;-79
2022/01/05 08:11:35;;;;;;;;;;;4.20;99.90;;;;;;4276059;33;20028;-79
2022/01/05 08:14:03;;;;;;;;;;;4.20;99.90;;;;;;4287829;33;20069;-79
2022/01/05 08:16:30;;;;;;;;;;;4.20;99.90;;;;;;4262856;33;20022;-79
2022/01/05 08:19:05;;;;;;;;;;;4.10;99.90;;;;;;4275392;33;19998;-79
2022/01/05 08:21:35;;;;;;;;;;;4.20;99.90;;;;;;4275314;33;20110;-78
2022/01/05 08:24:11;;;;;;;;;;;4.10;99.90;;;;;;4288550;33;20016;-80
2022/01/05 08:26:41;;;;;;;;;;;4.20;99.90;;;;;;4286995;33;19999;-79
2022/01/05 08:29:11;;;;;;;;;;;4.20;99.90;;;;;;4274758;33;20033;-79
2022/01/05 08:31:41;;;;;;;;;;;4.20;99.90;;;;;;4288378;33;20006;-79
2022/01/05 08:34:11;;;;;;;;;;;4.20;99.90;;;;;;4263738;33;20003;-78
2022/01/05 08:36:42;;;;;;;;;;;4.10;99.90;;;;;;4275399;33;20066;-79
2022/01/05 08:39:11;;;;;;;;;;;4.10;99.90;;;;;;4275201;33;20037;-79
2022/01/05 08:41:41;;;;;;;;;;;4.20;99.90;;;;;;4275171;33;19999;-79
2022/01/05 08:44:09;;;;;;;;;;;4.20;99.90;;;;;;4274995;33;20095;-79
2022/01/05 08:46:37;;;;;;;;;;;4.20;99.90;;;;;;4274903;33;20003;-79
2022/01/05 08:49:06;;;;;;;;;;;4.20;99.90;;;;;;4274619;33;20006;-79
2022/01/05 08:51:35;;;;;;;;;;;4.20;99.90;;;;;;4288403;33;20046;-79
2022/01/05 08:54:04;;;;;;;;;;;4.20;99.90;;;;;;4262959;33;20070;-78
2022/01/05 08:56:34;;;;;;;;;;;4.20;99.90;;;;;;4275208;33;20029;-79
2022/01/05 08:59:01;;;;;;;;;;;4.20;99.90;;;;;;4275053;33;20400;-79
2022/01/05 09:01:31;;;;;;;;;;;4.20;99.90;;;;;;4287512;33;20091;-78
2022/01/05 09:04:04;;;;;;;;;;;4.20;99.90;;;;;;4288241;33;20010;-78
2022/01/05 09:06:34;;;;;;;;;;;4.20;99.90;;;;;;4287959;33;20409;-79
2022/01/05 09:09:09;;;;;;;;;;;4.20;99.90;;;;;;4274608;33;20066;-79
2022/01/05 09:11:42;;;;;;;;;;;4.20;99.90;;;;;;4276219;33;20400;-79
2022/01/05 09:14:15;;;;;;;;;;;4.20;99.90;;;;;;4277571;33;19999;-79
2022/01/05 09:16:42;;;;;;;;;;;4.20;99.90;;;;;;4277782;33;20058;-79
2022/01/05 09:19:14;;;;;;;;;;;4.20;99.90;;;;;;4290321;33;20430;-79
2022/01/05 09:21:41;;;;;;;;;;;4.20;99.90;;;;;;4290290;33;20017;-79
2022/01/05 09:24:09;;;;;;;;;;;4.20;99.90;;;;;;4277343;33;20009;-79
2022/01/05 09:26:42;;;;;;;;;;;4.20;99.90;;;;;;4265442;33;20003;-79
2022/01/05 09:29:12;;;;;;;;;;;4.10;99.90;;;;;;4277472;33;20024;-79
2022/01/05 09:31:42;;;;;;;;;;;4.20;99.90;;;;;;4289939;33;20455;-78
2022/01/05 09:34:12;;;;;;;;;;;4.20;99.90;;;;;;4277367;33;20479;-79
2022/01/05 09:36:47;;;;;;;;;;;4.20;99.90;;;;;;4277106;33;20417;-79
2022/01/05 09:42:09;;;;;;;;;;;4.20;99.90;;;;;;4290225;33;20014;-79
2022/01/05 09:44:42;;;;;;;;;;;4.20;99.90;;;;;;4276958;33;20017;-79
2022/01/05 09:47:20;;;;;;;;;;;4.20;99.90;;;;;;4265387;33;20016;-79
2022/01/05 09:50:00;;;;;;;;;;;4.20;99.90;;;;;;4277454;33;20050;-79
2022/01/05 09:52:31;;;;;;;;;;;4.20;99.90;;;;;;4289993;33;20006;-79
2022/01/05 09:55:01;;;;;;;;;;;4.20;99.90;;;;;;4289986;33;20013;-79
2022/01/05 09:57:30;;;;;;;;;;;4.20;99.90;;;;;;4288760;33;20008;-79
2022/01/05 09:59:58;;;;;;;;;;;4.20;99.90;;;;;;4276516;33;20415;-79
2022/01/05 10:02:26;;;;;;;;;;;4.20;99.90;;;;;;4277032;33;20025;-80
2022/01/05 10:04:53;;;;;;;;;;;4.30;99.90;;;;;;4276956;33;20369;-79
2022/01/05 10:07:20;;;;;;;;;;;4.30;99.90;;;;;;4276893;33;20419;-79
2022/01/05 10:09:49;;;;;;;;;;;4.30;99.90;;;;;;4289502;33;20407;-79
2022/01/05 10:12:16;;;;;;;;;;;4.30;99.90;;;;;;4276400;33;23686;-79
2022/01/05 10:14:45;;;;;;;;;;;4.30;99.90;;;;;;4276528;33;20019;-79
2022/01/05 10:17:14;;;;;;;;;;;4.30;99.90;;;;;;4276245;33;21414;-79
2022/01/05 10:19:41;;;;;;;;;;;4.20;99.90;;;;;;4276499;33;20066;-79
2022/01/05 10:22:27;;;;;;;;;;;4.20;99.90;;;;;;4275971;33;23939;-78
2022/01/05 10:24:56;;;;;;;;;;;4.20;99.90;;;;;;4276057;33;25990;-79
2022/01/05 10:27:24;;;;;;;;;;;4.30;99.90;;;;;;4289186;33;20033;-79
2022/01/05 10:29:52;;;;;;;;;;;4.30;99.90;;;;;;4276041;33;20023;-79
2022/01/05 10:32:20;;;;;;;;;;;4.30;99.90;;;;;;4276375;33;20396;-79
2022/01/05 10:35:06;;;;;;;;;;;4.30;99.90;;;;;;4276579;33;20050;-79
2022/01/05 10:37:34;;;;;;;;;;;4.30;99.90;;;;;;4276007;33;20018;-79
2022/01/05 10:40:05;;;;;;;;;;;4.30;99.90;;;;;;4289292;33;20025;-79
2022/01/05 10:42:32;;;;;;;;;;;4.30;99.90;;;;;;4275858;33;23243;-79
2022/01/05 10:45:02;;;;;;;;;;;4.30;99.90;;;;;;4276321;33;20014;-79
2022/01/05 10:47:29;;;;;;;;;;;4.30;99.90;;;;;;4275875;33;24414;-79
2022/01/05 10:49:58;;;;;;;;;;;4.40;99.90;;;;;;4264331;33;19998;-79
2022/01/05 10:52:27;;;;;;;;;;;4.30;99.90;;;;;;4287531;33;24237;-79
2022/01/05 10:54:56;;;;;;;;;;;4.40;99.90;;;;;;4288322;33;20062;-80
2022/01/05 10:57:23;;;;;;;;;;;4.40;99.90;;;;;;4289189;33;20007;-79
2022/01/05 10:59:53;;;;;;;;;;;4.40;99.90;;;;;;4276162;33;20417;-79
2022/01/05 11:02:21;;;;;;;;;;;4.40;99.90;;;;;;4275094;33;20018;-79
2022/01/05 11:04:52;;;;;;;;;;;4.40;99.90;;;;;;4263679;33;24298;-79
2022/01/05 11:07:24;;;;;;;;;;;4.40;99.90;;;;;;4264063;33;20359;-79
2022/01/05 11:09:52;;;;;;;;;;;4.40;99.90;;;;;;4275320;33;20061;-79
2022/01/05 11:12:20;;;;;;;;;;;4.40;99.90;;;;;;4275111;33;20251;-79
2022/01/05 11:14:52;;;;;;;;;;;4.40;99.90;;;;;;4274609;33;36383;-79
2022/01/05 11:17:24;;;;;;;;;;;4.40;99.90;;;;;;4274890;33;40878;-79
2022/01/05 11:19:51;;;;;;;;;;;4.40;99.90;;;;;;4287936;33;30092;-79
2022/01/05 11:22:18;;;;;;;;;;;4.40;99.90;;;;;;4263242;33;32762;-79
2022/01/05 11:24:47;;;;;;;;;;;4.40;99.90;;;;;;4263045;33;39670;-79
2022/01/05 11:27:15;;;;;;;;;;;4.50;99.90;;;;;;4288369;33;20053;-79
2022/01/05 11:29:43;;;;;;;;;;;4.50;99.90;;;;;;4274460;33;36128;-79
2022/01/05 11:32:12;;;;;;;;;;;4.50;99.90;;;;;;4274568;33;40084;-79
2022/01/05 11:34:39;;;;;;;;;;;4.50;99.90;;;;;;4287832;33;20006;-80
2022/01/05 11:37:10;;;;;;;;;;;4.50;99.90;;;;;;4275483;33;20006;-79
2022/01/05 11:39:41;;;;;;;;;;;4.50;99.90;;;;;;4275915;33;20017;-79
2022/01/05 11:42:10;;;;;;;;;;;4.50;99.90;;;;;;4275767;33;20011;-80
2022/01/05 11:44:48;;;;;;;;;;;4.50;99.90;;;;;;4288260;33;20044;-79
2022/01/05 11:47:25;;;;;;;;;;;4.50;99.90;;;;;;4288679;33;20065;-79
2022/01/05 11:49:52;;;;;;;;;;;4.50;99.90;;;;;;4288317;33;20015;-79
2022/01/05 11:52:44;;;;;;;;;;;4.60;99.90;;;;;;4275780;33;20010;-79
2022/01/05 11:55:11;;;;;;;;;;;4.50;99.90;;;;;;4275753;33;20006;-79
2022/01/05 11:57:58;;;;;;;;;;;4.50;99.90;;;;;;4288525;33;20066;-80
2022/01/05 12:00:25;;;;;;;;;;;4.50;99.90;;;;;;4275258;33;20085;-79
2022/01/05 12:02:58;;;;;;;;;;;4.60;99.90;;;;;;4275177;33;20082;-79
2022/01/05 12:05:25;;;;;;;;;;;4.60;99.90;;;;;;4275802;33;20082;-79
2022/01/05 12:07:55;;;;;;;;;;;4.60;99.90;;;;;;4288011;33;20054;-79
2022/01/05 12:10:23;;;;;;;;;;;4.60;99.90;;;;;;4275519;33;20430;-79
2022/01/05 12:12:59;;;;;;;;;;;4.60;99.90;;;;;;4275732;33;20029;-79
2022/01/05 12:15:40;;;;;;;;;;;4.60;99.90;;;;;;4275088;33;20412;-79
2022/01/05 12:18:29;;;;;;;;;;;4.60;99.90;;;;;;4288429;33;20049;-79
2022/01/05 12:20:59;;;;;;;;;;;4.60;99.90;;;;;;4288408;33;20071;-79
2022/01/05 12:23:28;;;;;;;;;;;4.60;99.90;;;;;;4288535;33;20114;-79
2022/01/05 12:26:01;;;;;;;;;;;4.70;99.90;;;;;;4275222;33;19999;-79
2022/01/05 12:28:32;;;;;;;;;;;4.70;99.90;;;;;;4287852;33;20014;-79
2022/01/05 12:31:01;;;;;;;;;;;4.70;99.90;;;;;;4288188;33;20359;-79
2022/01/05 12:33:41;;;;;;;;;;;4.70;99.90;;;;;;4263011;33;20430;-79
2022/01/05 12:36:15;;;;;;;;;;;4.70;99.90;;;;;;4288444;33;19998;-79
2022/01/05 12:38:48;;;;;;;;;;;4.70;99.90;;;;;;4287723;33;29787;-79
2022/01/05 12:41:27;;;;;;;;;;;4.70;99.90;;;;;;4287099;33;35682;-79
2022/01/05 12:43:56;;;;;;;;;;;4.70;99.90;;;;;;4287109;33;38909;-79
2022/01/05 12:46:33;;;;;;;;;;;4.70;99.90;;;;;;4287554;33;40089;-79
2022/01/05 12:49:06;;;;;;;;;;;4.70;99.90;;;;;;4277355;33;29916;-79
2022/01/05 12:51:39;;;;;;;;;;;4.70;99.90;;;;;;4277091;33;35935;-79
2022/01/05 12:54:10;;;;;;;;;;;4.70;99.90;;;;;;4290870;33;20073;-79
2022/01/05 12:56:46;;;;;;;;;;;4.70;99.90;;;;;;4277311;33;36776;-79
2022/01/05 12:59:19;;;;;;;;;;;4.70;99.90;;;;;;4288469;33;39337;-79
2022/01/05 13:01:47;;;;;;;;;;;4.70;99.90;;;;;;4276606;33;42982;-79
2022/01/05 13:04:15;;;;;;;;;;;4.70;99.90;;;;;;4277461;33;20042;-79
2022/01/05 13:06:45;;;;;;;;;;;4.70;99.90;;;;;;4289813;33;20273;-79
2022/01/05 13:09:14;;;;;;;;;;;4.70;99.90;;;;;;4289088;33;43482;-79
2022/01/05 13:11:43;;;;;;;;;;;4.70;99.90;;;;;;4289797;33;25635;-79
2022/01/05 13:14:30;;;;;;;;;;;4.70;99.90;;;;;;4290482;33;20388;-80
2022/01/05 13:17:06;;;;;;;;;;;4.70;99.90;;;;;;4276865;33;41078;-79
2022/01/05 13:19:33;;;;;;;;;;;4.70;99.90;;;;;;4289863;33;37280;-80
2022/01/05 13:22:04;;;;;;;;;;;4.70;99.90;;;;;;4289879;33;34502;-80
2022/01/05 13:24:42;;;;;;;;;;;4.70;99.90;;;;;;4277452;33;20022;-80
2022/01/05 13:27:09;;;;;;;;;;;4.70;99.90;;;;;;4276394;33;40011;-79
2022/01/05 13:29:36;;;;;;;;;;;4.70;99.90;;;;;;4276482;33;37135;-80
2022/01/05 13:32:08;;;;;;;;;;;4.70;99.90;;;;;;4289412;33;37127;-79
2022/01/05 13:34:37;;;;;;;;;;;4.70;99.90;;;;;;4276050;33;39324;-79
2022/01/05 13:37:05;;;;;;;;;;;4.80;99.90;;;;;;4264267;33;45727;-80
2022/01/05 13:39:36;;;;;;;;;;;4.80;99.90;;;;;;4288967;33;37709;-80
2022/01/05 13:42:03;;;;;;;;;;;4.80;99.90;;;;;;4290513;33;20007;-80
2022/01/05 13:44:31;;;;;;;;;;;4.80;99.90;;;;;;4277454;33;20025;-79
2022/01/05 13:46:59;;;;;;;;;;;4.80;99.90;;;;;;4276839;33;20423;-80
2022/01/05 13:49:26;;;;;;;;;;;4.70;99.90;;;;;;4277459;33;20134;-80
2022/01/05 13:52:04;;;;;;;;;;;4.80;99.90;;;;;;4290406;33;20028;-80
2022/01/05 13:54:31;;;;;;;;;;;4.80;99.90;;;;;;4277089;33;20015;-80
2022/01/05 13:56:59;;;;;;;;;;;4.80;99.90;;;;;;4276925;33;20007;-79
2022/01/05 13:59:38;;;;;;;;;;;4.80;99.90;;;;;;4276863;33;20104;-79
2022/01/05 14:02:11;;;;;;;;;;;4.80;99.90;;;;;;4276354;33;20051;-80
2022/01/05 14:04:55;;;;;;;;;;;4.80;99.90;;;;;;4277383;33;20062;-80
2022/01/05 14:07:24;;;;;;;;;;;4.80;99.90;;;;;;4277166;33;20369;-80
2022/01/05 14:10:20;;;;;;;;;;;4.80;99.90;;;;;;4276513;33;25175;-80
2022/01/05 14:12:50;;;;;;;;;;;4.80;99.90;;;;;;4267739;33;20383;-79
2022/01/05 14:15:18;;;;;;;;;;;4.90;99.90;;;;;;4265148;33;20029;-79
2022/01/05 14:18:02;;;;;;;;;;;4.90;99.90;;;;;;4289974;33;20006;-80
2022/01/05 14:20:30;;;;;;;;;;;4.90;99.90;;;;;;4276775;33;19998;-79
2022/01/05 14:23:05;;;;;;;;;;;4.90;99.90;;;;;;4276497;33;20396;-80
2022/01/05 14:25:42;;;;;;;;;;;4.90;99.90;;;;;;4276458;33;20372;-80
2022/01/05 14:28:17;;;;;;;;;;;4.90;99.90;;;;;;4276140;33;20021;-80
2022/01/05 14:31:05;;;;;;;;;;;4.90;99.90;;;;;;4289712;33;20006;-80
2022/01/05 14:33:36;;;;;;;;;;;4.90;99.90;;;;;;4276841;33;20010;-80
2022/01/05 14:36:05;;;;;;;;;;;4.90;99.90;;;;;;4276213;33;20008;-79
2022/01/05 14:38:35;;;;;;;;;;;4.90;99.90;;;;;;4276456;33;20009;-79
2022/01/05 14:41:11;;;;;;;;;;;4.90;99.90;;;;;;4289537;33;20044;-80
2022/01/05 14:43:39;;;;;;;;;;;5.00;99.90;;;;;;4289649;33;20431;-79
2022/01/05 14:46:09;;;;;;;;;;;4.90;99.90;;;;;;4289462;33;20052;-79
2022/01/05 14:48:36;;;;;;;;;;;5.00;99.90;;;;;;4289139;33;20427;-79